createdAt,value
2018-05-24T00:00:12.436Z,96.18
2018-05-24T00:01:12.432Z,94.07
2018-05-24T00:02:12.425Z,94.26
2018-05-24T00:03:12.418Z,94.17
2018-05-24T00:04:12.415Z,94.26
2018-05-24T00:05:12.408Z,93.88
2018-05-24T00:06:12.402Z,94.17
2018-05-24T00:07:12.397Z,93.88
2018-05-24T00:08:12.392Z,93.12
2018-05-24T00:09:12.387Z,92.16
2018-05-24T00:10:12.380Z,92.44
2018-05-24T00:11:12.380Z,92.16
2018-05-24T00:12:12.370Z,91.97
2018-05-24T00:13:12.364Z,92.92
2018-05-24T00:14:12.358Z,92.16
2018-05-24T00:15:12.357Z,92.25
2018-05-24T00:16:12.348Z,93.12
2018-05-24T00:17:12.342Z,93.30
2018-05-24T00:18:12.336Z,93.21
2018-05-24T00:19:12.331Z,93.21
2018-05-24T00:20:12.326Z,93.12
2018-05-24T00:21:12.523Z,93.30
2018-05-24T00:22:12.314Z,94.17
2018-05-24T00:23:12.309Z,93.98
2018-05-24T00:24:12.305Z,93.50
2018-05-24T00:25:12.302Z,93.21
2018-05-24T00:26:12.292Z,94.84
2018-05-24T00:27:12.288Z,94.17
2018-05-24T00:28:12.281Z,93.98
2018-05-24T00:29:12.278Z,93.98
2018-05-24T00:30:12.281Z,93.40
2018-05-24T00:31:12.265Z,93.12
2018-05-24T00:32:12.261Z,92.83
2018-05-24T00:33:12.255Z,91.39
2018-05-24T00:34:12.252Z,91.58
2018-05-24T00:36:12.238Z,91.44
2018-05-24T00:37:12.235Z,91.15
2018-05-24T00:38:12.228Z,90.96
2018-05-24T00:39:12.222Z,90.86
2018-05-24T00:40:12.216Z,90.63
2018-05-24T00:41:12.212Z,92.49
2018-05-24T00:42:12.209Z,92.54
2018-05-24T00:43:12.204Z,92.58
2018-05-24T00:44:12.195Z,92.87
2018-05-24T00:45:12.190Z,92.44
2018-05-24T00:46:12.185Z,92.35
2018-05-24T00:47:12.179Z,91.39
2018-05-24T00:48:12.175Z,92.06
2018-05-24T00:49:12.168Z,92.83
2018-05-24T00:50:12.161Z,92.83
2018-05-24T00:51:12.156Z,92.83
2018-05-24T00:52:12.151Z,93.12
2018-05-24T00:53:12.148Z,93.02
2018-05-24T00:54:12.140Z,93.02
2018-05-24T00:55:12.134Z,93.12
2018-05-24T00:56:12.131Z,93.21
2018-05-24T00:57:12.123Z,92.83
2018-05-24T00:58:12.117Z,93.64
2018-05-24T00:59:12.112Z,94.60
2018-05-24T01:00:12.107Z,94.89
2018-05-24T01:01:12.101Z,95.27
2018-05-24T01:02:12.095Z,95.17
2018-05-24T01:03:12.097Z,95.17
2018-05-24T01:04:12.084Z,95.27
2018-05-24T01:05:12.078Z,95.36
2018-05-24T01:06:12.072Z,94.98
2018-05-24T01:07:12.070Z,96.03
2018-05-24T01:08:12.062Z,95.27
2018-05-24T01:09:12.056Z,95.65
2018-05-24T01:10:12.052Z,95.84
2018-05-24T01:11:12.044Z,95.75
2018-05-24T01:12:12.038Z,95.94
2018-05-24T01:13:12.033Z,96.13
2018-05-24T01:14:12.028Z,96.03
2018-05-24T01:15:12.020Z,96.13
2018-05-24T01:16:12.015Z,96.61
2018-05-24T01:17:12.009Z,96.47
2018-05-24T01:18:12.002Z,96.56
2018-05-24T01:19:11.999Z,96.13
2018-05-24T01:20:11.991Z,95.89
2018-05-24T01:21:11.985Z,96.08
2018-05-24T01:22:11.978Z,96.47
2018-05-24T01:23:11.973Z,96.18
2018-05-24T01:24:11.970Z,96.47
2018-05-24T01:25:11.964Z,96.84
2018-05-24T01:26:11.955Z,96.84
2018-05-24T01:27:11.950Z,96.84
2018-05-24T01:28:11.944Z,96.94
2018-05-24T01:29:11.943Z,97.52
2018-05-24T01:30:11.934Z,97.71
2018-05-24T01:31:11.925Z,97.52
2018-05-24T01:32:11.920Z,97.33
2018-05-24T01:33:11.914Z,97.52
2018-05-24T01:34:11.907Z,97.99
2018-05-24T01:35:11.907Z,98.38
2018-05-24T01:36:11.896Z,98.38
2018-05-24T01:37:11.890Z,97.23
2018-05-24T01:38:12.085Z,96.94
2018-05-24T01:39:11.877Z,96.75
2018-05-24T01:40:11.871Z,96.75
2018-05-24T01:41:11.866Z,97.04
2018-05-24T01:42:11.859Z,97.42
2018-05-24T01:43:11.854Z,97.42
2018-05-24T01:44:11.851Z,97.13
2018-05-24T01:45:11.841Z,97.71
2018-05-24T01:46:11.837Z,97.99
2018-05-24T01:47:11.828Z,98.18
2018-05-24T01:48:11.823Z,96.94
2018-05-24T01:49:11.816Z,96.94
2018-05-24T01:50:11.809Z,96.84
2018-05-24T01:51:11.803Z,97.33
2018-05-24T01:52:11.880Z,98.38
2018-05-24T01:53:11.791Z,97.99
2018-05-24T01:54:11.784Z,98.18
2018-05-24T01:55:11.779Z,97.61
2018-05-24T01:56:11.773Z,98.38
2018-05-24T01:57:11.770Z,97.99
2018-05-24T01:58:11.765Z,97.90
2018-05-24T01:59:11.786Z,98.85
2018-05-24T02:00:11.752Z,99.04
2018-05-24T02:01:11.742Z,99.04
2018-05-24T02:02:11.735Z,99.14
2018-05-24T02:03:11.729Z,99.14
2018-05-24T02:04:11.723Z,99.14
2018-05-24T02:05:11.717Z,99.33
2018-05-24T02:06:11.710Z,99.14
2018-05-24T02:07:11.704Z,99.24
2018-05-24T02:08:11.701Z,98.71
2018-05-24T02:09:11.694Z,99.14
2018-05-24T02:10:11.685Z,99.48
2018-05-24T02:11:11.680Z,99.57
2018-05-24T02:12:11.673Z,99.04
2018-05-24T02:13:11.671Z,99.71
2018-05-24T02:14:11.661Z,99.48
2018-05-24T02:15:11.655Z,99.33
2018-05-24T02:16:11.648Z,99.66
2018-05-24T02:17:11.643Z,99.76
2018-05-24T02:18:11.639Z,99.85
2018-05-24T02:19:11.630Z,99.38
2018-05-24T02:20:11.667Z,99.28
2018-05-24T02:21:11.618Z,99.66
2018-05-24T02:22:11.611Z,99.09
2018-05-24T02:23:11.607Z,99.81
2018-05-24T02:24:11.599Z,99.81
2018-05-24T02:25:11.592Z,99.62
2018-05-24T02:26:11.586Z,99.99
2018-05-24T02:27:11.579Z,99.66
2018-05-24T02:28:11.573Z,99.52
2018-05-24T02:29:11.653Z,99.33
2018-05-24T02:30:11.561Z,99.24
2018-05-24T02:31:11.556Z,99.71
2018-05-24T02:32:11.549Z,99.62
2018-05-24T02:33:11.544Z,99.99
2018-05-24T02:34:11.541Z,99.99
2018-05-24T02:35:11.531Z,99.99
2018-05-24T02:36:11.525Z,99.71
2018-05-24T02:37:11.519Z,98.09
2018-05-24T02:38:11.512Z,98.66
2018-05-24T02:39:11.510Z,98.18
2018-05-24T02:40:11.502Z,98.75
2018-05-24T02:41:11.494Z,99.33
2018-05-24T02:42:11.488Z,98.75
2018-05-24T02:43:11.481Z,98.85
2018-05-24T02:44:11.489Z,98.95
2018-05-24T02:45:11.469Z,98.38
2018-05-24T02:46:11.462Z,98.09
2018-05-24T02:47:11.465Z,98.28
2018-05-24T02:48:11.454Z,98.09
2018-05-24T02:49:11.454Z,98.28
2018-05-24T02:50:11.439Z,98.18
2018-05-24T02:51:11.449Z,98.47
2018-05-24T02:52:11.426Z,97.61
2018-05-24T02:53:11.421Z,98.38
2018-05-24T02:54:11.421Z,98.75
2018-05-24T02:55:11.407Z,99.33
2018-05-24T02:56:11.401Z,99.33
2018-05-24T02:57:11.396Z,99.62
2018-05-24T02:58:11.389Z,99.52
2018-05-24T02:59:11.383Z,98.66
2018-05-24T03:00:11.381Z,99.04
2018-05-24T03:01:11.371Z,99.52
2018-05-24T03:02:11.367Z,99.43
2018-05-24T03:03:11.360Z,98.95
2018-05-24T03:04:11.352Z,98.95
2018-05-24T03:05:11.351Z,99.33
2018-05-24T03:06:11.340Z,99.71
2018-05-24T03:07:11.334Z,99.90
2018-05-24T03:08:11.328Z,99.71
2018-05-24T03:09:11.322Z,99.90
2018-05-24T03:10:11.316Z,99.90
2018-05-24T03:11:11.310Z,99.14
2018-05-24T03:12:11.310Z,99.43
2018-05-24T03:13:11.299Z,99.24
2018-05-24T03:14:11.295Z,99.71
2018-05-24T03:15:11.287Z,99.90
2018-05-24T03:16:11.281Z,99.95
2018-05-24T03:17:11.275Z,99.81
2018-05-24T03:18:11.266Z,99.66
2018-05-24T03:19:11.260Z,99.95
2018-05-24T03:20:11.254Z,99.99
2018-05-24T03:21:11.248Z,99.95
2018-05-24T03:22:11.241Z,99.99
2018-05-24T03:23:11.242Z,99.99
2018-05-24T03:24:11.229Z,99.99
2018-05-24T03:25:11.223Z,99.99
2018-05-24T03:26:11.216Z,99.99
2018-05-24T03:27:11.215Z,99.99
2018-05-24T03:28:11.204Z,99.99
2018-05-24T03:29:11.198Z,99.99
2018-05-24T03:30:11.191Z,99.99
2018-05-24T03:31:11.192Z,99.99
2018-05-24T03:32:11.180Z,99.99
2018-05-24T03:33:11.172Z,99.99
2018-05-24T03:34:11.165Z,99.99
2018-05-24T03:35:11.211Z,99.99
2018-05-24T03:36:11.161Z,99.99
2018-05-24T03:37:11.150Z,99.99
2018-05-24T03:38:11.140Z,99.99
2018-05-24T03:39:11.336Z,99.99
2018-05-24T03:40:11.127Z,99.99
2018-05-24T03:41:11.123Z,99.99
2018-05-24T03:42:11.114Z,99.99
2018-05-24T03:43:11.108Z,99.99
2018-05-24T03:44:11.107Z,99.99
2018-05-24T03:45:11.095Z,99.99
2018-05-24T03:46:11.088Z,99.99
2018-05-24T03:47:11.081Z,99.99
2018-05-24T03:48:11.080Z,99.99
2018-05-24T03:49:11.069Z,99.99
2018-05-24T03:50:11.062Z,99.99
2018-05-24T03:51:11.058Z,99.99
2018-05-24T03:52:11.054Z,99.99
2018-05-24T03:53:11.043Z,99.99
2018-05-24T03:54:11.036Z,99.99
2018-05-24T03:55:11.031Z,99.99
2018-05-24T03:56:11.027Z,99.99
2018-05-24T03:57:11.018Z,99.99
2018-05-24T03:58:11.012Z,99.99
2018-05-24T03:59:11.005Z,99.99
2018-05-24T04:00:11.005Z,99.99
2018-05-24T04:01:10.996Z,99.99
2018-05-24T04:02:10.990Z,99.99
2018-05-24T04:03:10.985Z,99.99
2018-05-24T04:04:10.973Z,99.99
2018-05-24T04:05:11.002Z,99.99
2018-05-24T04:06:10.963Z,99.99
2018-05-24T04:07:10.955Z,99.66
2018-05-24T04:08:10.948Z,99.48
2018-05-24T04:09:10.942Z,99.38
2018-05-24T04:10:11.139Z,98.33
2018-05-24T04:11:10.930Z,98.95
2018-05-24T04:12:10.923Z,98.85
2018-05-24T04:13:10.918Z,98.28
2018-05-24T04:14:10.910Z,97.99
2018-05-24T04:15:10.904Z,98.09
2018-05-24T04:16:10.899Z,98.95
2018-05-24T04:17:10.893Z,98.38
2018-05-24T04:18:10.886Z,97.23
2018-05-24T04:19:10.880Z,97.52
2018-05-24T04:20:10.878Z,97.23
2018-05-24T04:21:10.869Z,95.79
2018-05-24T04:22:10.862Z,95.79
2018-05-24T04:23:10.931Z,94.60
2018-05-24T04:24:10.850Z,94.50
2018-05-24T04:25:10.845Z,94.50
2018-05-24T04:26:10.843Z,93.93
2018-05-24T04:27:10.833Z,95.07
2018-05-24T04:28:10.830Z,94.21
2018-05-24T04:29:10.821Z,93.74
2018-05-24T04:30:10.815Z,94.12
2018-05-24T04:31:10.809Z,94.12
2018-05-24T04:32:10.803Z,94.31
2018-05-24T04:33:10.798Z,94.89
2018-05-24T04:34:10.795Z,94.21
2018-05-24T04:35:10.790Z,94.31
2018-05-24T04:36:10.780Z,94.60
2018-05-24T04:37:10.775Z,93.84
2018-05-24T04:38:10.768Z,93.64
2018-05-24T04:39:10.763Z,94.12
2018-05-24T04:40:10.764Z,94.50
2018-05-24T04:41:10.752Z,94.21
2018-05-24T04:42:10.752Z,93.55
2018-05-24T04:43:10.739Z,93.16
2018-05-24T04:44:10.734Z,92.69
2018-05-24T04:45:10.728Z,92.21
2018-05-24T04:46:10.722Z,90.87
2018-05-24T04:47:10.716Z,90.87
2018-05-24T04:48:10.717Z,90.01
2018-05-24T04:49:10.705Z,89.53
2018-05-24T04:50:10.700Z,90.15
2018-05-24T04:51:10.693Z,90.72
2018-05-24T04:52:10.694Z,90.91
2018-05-24T04:53:10.682Z,89.29
2018-05-24T04:54:10.678Z,88.52
2018-05-24T04:55:10.670Z,87.95
2018-05-24T04:56:10.670Z,87.47
2018-05-24T04:57:10.659Z,86.41
2018-05-24T04:58:10.656Z,85.46
2018-05-24T04:59:10.647Z,85.31
2018-05-24T05:00:10.645Z,85.94
2018-05-24T05:01:10.636Z,85.88
2018-05-24T05:02:10.634Z,85.60
2018-05-24T05:03:10.626Z,85.79
2018-05-24T05:04:10.624Z,85.88
2018-05-24T05:05:10.613Z,86.65
2018-05-24T05:06:10.609Z,85.41
2018-05-24T05:07:10.601Z,84.92
2018-05-24T05:08:10.596Z,85.02
2018-05-24T05:09:10.590Z,85.60
2018-05-24T05:10:10.584Z,85.69
2018-05-24T05:11:10.578Z,85.02
2018-05-24T05:12:10.576Z,84.92
2018-05-24T05:13:10.567Z,85.16
2018-05-24T05:14:10.567Z,84.88
2018-05-24T05:15:10.556Z,85.35
2018-05-24T05:16:10.550Z,85.12
2018-05-24T05:17:10.545Z,84.68
2018-05-24T05:18:10.544Z,84.97
2018-05-24T05:19:10.536Z,85.54
2018-05-24T05:20:10.529Z,84.39
2018-05-24T05:21:10.523Z,84.30
2018-05-24T05:22:10.518Z,85.35
2018-05-24T05:23:10.643Z,85.16
2018-05-24T05:24:10.507Z,84.88
2018-05-24T05:25:10.602Z,85.16
2018-05-24T05:26:10.496Z,84.88
2018-05-24T05:27:10.491Z,85.16
2018-05-24T05:28:10.486Z,84.88
2018-05-24T05:29:10.481Z,84.72
2018-05-24T05:30:10.475Z,84.11
2018-05-24T05:31:10.470Z,83.76
2018-05-24T05:32:10.469Z,83.67
2018-05-24T05:33:10.461Z,84.44
2018-05-24T05:34:10.455Z,85.21
2018-05-24T05:35:10.454Z,85.21
2018-05-24T05:36:10.445Z,84.44
2018-05-24T05:37:10.441Z,84.63
2018-05-24T05:38:10.452Z,82.04
2018-05-24T05:39:10.433Z,82.90
2018-05-24T05:40:10.426Z,84.00
2018-05-24T05:41:10.423Z,83.61
2018-05-24T05:42:10.416Z,83.71
2018-05-24T05:43:10.411Z,83.81
2018-05-24T05:44:10.414Z,83.04
2018-05-24T05:45:10.403Z,82.27
2018-05-24T05:46:10.400Z,82.27
2018-05-24T05:47:10.401Z,82.08
2018-05-24T05:48:10.392Z,82.18
2018-05-24T05:49:10.387Z,82.75
2018-05-24T05:50:10.383Z,82.98
2018-05-24T05:51:10.375Z,82.31
2018-05-24T05:52:10.484Z,81.74
2018-05-24T05:53:10.569Z,82.51
2018-05-24T05:54:10.362Z,82.79
2018-05-24T05:55:10.358Z,82.31
2018-05-24T05:56:10.356Z,82.31
2018-05-24T05:57:10.351Z,82.41
2018-05-24T05:58:10.347Z,81.74
2018-05-24T05:59:10.342Z,82.98
2018-05-24T06:00:10.336Z,83.37
2018-05-24T06:01:10.332Z,84.52
2018-05-24T06:02:10.332Z,83.18
2018-05-24T06:03:10.329Z,83.91
2018-05-24T06:04:10.320Z,83.75
2018-05-24T06:05:10.316Z,83.65
2018-05-24T06:06:10.312Z,83.47
2018-05-24T06:07:10.509Z,82.21
2018-05-24T06:08:10.304Z,80.97
2018-05-24T06:09:10.304Z,81.26
2018-05-24T06:10:10.296Z,80.11
2018-05-24T06:11:10.290Z,80.15
2018-05-24T06:12:10.287Z,80.53
2018-05-24T06:13:10.283Z,80.15
2018-05-24T06:14:10.281Z,81.30
2018-05-24T06:15:10.274Z,81.49
2018-05-24T06:16:10.270Z,80.24
2018-05-24T06:17:10.268Z,80.91
2018-05-24T06:18:10.265Z,79.28
2018-05-24T06:19:10.261Z,81.30
2018-05-24T06:20:10.256Z,81.40
2018-05-24T06:21:10.252Z,81.87
2018-05-24T06:22:10.248Z,79.28
2018-05-24T06:23:10.446Z,79.90
2018-05-24T06:24:10.240Z,78.99
2018-05-24T06:25:10.237Z,78.23
2018-05-24T06:26:10.237Z,79.47
2018-05-24T06:27:10.230Z,80.34
2018-05-24T06:28:10.229Z,80.15
2018-05-24T06:29:10.226Z,80.91
2018-05-24T06:30:10.221Z,80.34
2018-05-24T06:31:10.215Z,80.66
2018-05-24T06:32:10.211Z,79.32
2018-05-24T06:33:10.208Z,77.98
2018-05-24T06:34:10.203Z,79.99
2018-05-24T06:35:10.201Z,77.69
2018-05-24T06:36:10.197Z,77.78
2018-05-24T06:37:10.209Z,78.45
2018-05-24T06:38:10.190Z,76.82
2018-05-24T06:39:10.189Z,77.01
2018-05-24T06:40:10.184Z,78.21
2018-05-24T06:41:10.186Z,77.15
2018-05-24T06:42:10.178Z,77.83
2018-05-24T06:43:10.178Z,77.53
2018-05-24T06:44:10.175Z,76.57
2018-05-24T06:45:10.171Z,76.00
2018-05-24T06:46:10.166Z,76.09
2018-05-24T06:47:10.163Z,76.29
2018-05-24T06:48:10.164Z,77.15
2018-05-24T06:49:10.161Z,76.96
2018-05-24T06:50:10.155Z,76.77
2018-05-24T06:51:10.155Z,78.34
2018-05-24T06:52:10.149Z,77.29
2018-05-24T06:53:10.147Z,75.07
2018-05-24T06:54:10.144Z,74.11
2018-05-24T06:55:10.141Z,75.17
2018-05-24T06:56:10.142Z,77.09
2018-05-24T06:57:10.137Z,74.79
2018-05-24T06:58:10.134Z,75.02
2018-05-24T06:59:10.131Z,72.96
2018-05-24T07:00:10.134Z,74.02
2018-05-24T07:01:10.133Z,73.63
2018-05-24T07:02:10.124Z,73.54
2018-05-24T07:03:10.122Z,74.46
2018-05-24T07:04:10.121Z,74.50
2018-05-24T07:05:10.124Z,76.04
2018-05-24T07:06:10.117Z,74.69
2018-05-24T07:07:10.117Z,74.69
2018-05-24T07:08:10.117Z,76.36
2018-05-24T07:09:10.115Z,77.13
2018-05-24T07:10:10.114Z,72.80
2018-05-24T07:11:10.218Z,73.38
2018-05-24T07:12:10.114Z,73.83
2018-05-24T07:13:10.114Z,74.25
2018-05-24T07:14:10.115Z,74.34
2018-05-24T07:15:10.117Z,75.21
2018-05-24T07:16:10.316Z,75.88
2018-05-24T07:17:10.114Z,76.07
2018-05-24T07:18:10.118Z,76.40
2018-05-24T07:19:10.118Z,77.08
2018-05-24T07:20:10.120Z,74.09
2018-05-24T07:21:10.121Z,73.65
2018-05-24T07:22:10.127Z,73.65
2018-05-24T07:23:10.129Z,73.36
2018-05-24T07:24:10.132Z,74.61
2018-05-24T07:25:10.131Z,73.26
2018-05-24T07:26:10.134Z,72.49
2018-05-24T07:27:10.137Z,71.62
2018-05-24T07:28:10.141Z,73.94
2018-05-24T07:29:10.145Z,73.74
2018-05-24T07:30:10.152Z,73.84
2018-05-24T07:31:10.158Z,75.09
2018-05-24T07:32:10.157Z,71.47
2018-05-24T07:33:10.161Z,72.63
2018-05-24T07:34:10.167Z,72.78
2018-05-24T07:35:10.170Z,72.43
2018-05-24T07:36:10.180Z,71.91
2018-05-24T07:37:10.186Z,71.66
2018-05-24T07:38:10.186Z,72.24
2018-05-24T07:39:10.196Z,71.85
2018-05-24T07:40:10.198Z,72.33
2018-05-24T07:41:10.205Z,70.60
2018-05-24T07:42:10.211Z,70.89
2018-05-24T07:43:10.218Z,70.98
2018-05-24T07:44:10.225Z,72.56
2018-05-24T07:45:10.246Z,72.37
2018-05-24T07:46:10.239Z,72.21
2018-05-24T07:47:10.248Z,70.09
2018-05-24T07:48:10.255Z,69.07
2018-05-24T07:49:10.267Z,68.97
2018-05-24T07:50:10.269Z,68.59
2018-05-24T07:51:10.278Z,67.23
2018-05-24T07:52:10.287Z,68.97
2018-05-24T07:53:10.294Z,68.59
2018-05-24T07:54:10.302Z,68.33
2018-05-24T07:55:10.312Z,67.94
2018-05-24T07:56:10.319Z,67.46
2018-05-24T07:57:10.333Z,68.23
2018-05-24T07:58:10.337Z,68.04
2018-05-24T07:59:10.350Z,66.30
2018-05-24T08:00:10.359Z,67.75
2018-05-24T08:01:10.364Z,66.97
2018-05-24T08:02:10.395Z,68.52
2018-05-24T08:03:10.382Z,69.20
2018-05-24T08:04:10.392Z,68.46
2018-05-24T08:05:10.402Z,66.72
2018-05-24T08:06:10.412Z,68.94
2018-05-24T08:07:10.421Z,66.56
2018-05-24T08:08:10.430Z,61.86
2018-05-24T08:09:10.441Z,65.14
2018-05-24T08:10:10.449Z,64.95
2018-05-24T08:11:10.462Z,64.40
2018-05-24T08:12:10.469Z,65.75
2018-05-24T08:13:10.482Z,66.91
2018-05-24T08:14:10.492Z,64.34
2018-05-24T08:15:10.498Z,64.92
2018-05-24T08:16:10.509Z,66.27
2018-05-24T08:17:10.519Z,64.85
2018-05-24T08:18:10.534Z,62.34
2018-05-24T08:19:10.540Z,63.02
2018-05-24T08:20:10.554Z,63.79
2018-05-24T08:21:10.562Z,63.89
2018-05-24T08:22:10.570Z,63.21
2018-05-24T08:23:10.582Z,63.50
2018-05-24T08:24:10.592Z,65.95
2018-05-24T08:25:10.606Z,65.37
2018-05-24T08:26:10.617Z,65.01
2018-05-24T08:27:10.632Z,62.30
2018-05-24T08:28:10.641Z,64.53
2018-05-24T08:29:10.648Z,65.30
2018-05-24T08:30:10.667Z,64.14
2018-05-24T08:31:10.676Z,62.98
2018-05-24T08:32:10.683Z,61.92
2018-05-24T08:33:10.695Z,63.05
2018-05-24T08:34:10.706Z,62.50
2018-05-24T08:35:10.747Z,64.04
2018-05-24T08:36:10.731Z,63.85
2018-05-24T08:37:10.743Z,60.66
2018-05-24T08:38:10.754Z,60.95
2018-05-24T08:39:10.767Z,60.57
2018-05-24T08:40:10.779Z,61.56
2018-05-24T08:41:10.876Z,62.43
2018-05-24T08:42:10.810Z,60.04
2018-05-24T08:43:10.821Z,57.14
2018-05-24T08:44:10.834Z,55.46
2018-05-24T08:45:10.843Z,57.01
2018-05-24T08:46:10.853Z,59.91
2018-05-24T08:47:10.934Z,58.78
2018-05-24T08:48:10.878Z,57.14
2018-05-24T08:49:10.891Z,59.27
2018-05-24T08:50:10.904Z,56.26
2018-05-24T08:51:10.916Z,57.33
2018-05-24T08:52:10.932Z,56.56
2018-05-24T08:53:10.942Z,55.36
2018-05-24T08:54:10.954Z,58.27
2018-05-24T08:55:10.967Z,55.66
2018-05-24T08:56:10.983Z,54.98
2018-05-24T08:57:10.994Z,57.04
2018-05-24T08:58:11.206Z,57.14
2018-05-24T08:59:11.021Z,55.10
2018-05-24T09:00:11.029Z,56.36
2018-05-24T09:01:11.080Z,55.22
2018-05-24T09:02:11.054Z,57.91
2018-05-24T09:03:11.069Z,56.07
2018-05-24T09:04:11.079Z,57.07
2018-05-24T09:05:11.092Z,57.45
2018-05-24T09:06:11.109Z,55.13
2018-05-24T09:07:11.117Z,56.26
2018-05-24T09:08:11.130Z,57.43
2018-05-24T09:09:11.144Z,56.26
2018-05-24T09:10:11.156Z,57.65
2018-05-24T09:11:11.168Z,56.29
2018-05-24T09:12:11.179Z,57.29
2018-05-24T09:13:11.198Z,56.03
2018-05-24T09:14:11.205Z,56.23
2018-05-24T09:15:11.218Z,56.25
2018-05-24T09:16:11.231Z,55.67
2018-05-24T09:17:11.245Z,55.99
2018-05-24T09:18:11.263Z,55.21
2018-05-24T09:19:11.573Z,55.11
2018-05-24T09:20:11.320Z,55.63
2018-05-24T09:21:11.305Z,55.82
2018-05-24T09:22:11.319Z,53.10
2018-05-24T09:23:11.327Z,55.60
2018-05-24T09:24:11.343Z,57.08
2018-05-24T09:25:11.356Z,54.07
2018-05-24T09:26:11.369Z,55.24
2018-05-24T09:27:11.384Z,54.17
2018-05-24T09:28:11.402Z,54.24
2018-05-24T09:29:11.414Z,54.24
2018-05-24T09:30:11.630Z,54.14
2018-05-24T09:31:11.442Z,55.89
2018-05-24T09:32:11.458Z,57.83
2018-05-24T09:33:11.473Z,57.06
2018-05-24T09:34:11.486Z,56.67
2018-05-24T09:35:11.502Z,57.28
2018-05-24T09:36:11.521Z,54.46
2018-05-24T09:37:11.535Z,53.75
2018-05-24T09:38:11.544Z,55.31
2018-05-24T09:39:11.560Z,55.89
2018-05-24T09:40:11.574Z,55.02
2018-05-24T09:41:11.590Z,55.24
2018-05-24T09:42:11.667Z,54.75
2018-05-24T09:43:11.622Z,56.30
2018-05-24T09:44:11.633Z,57.08
2018-05-24T09:45:11.648Z,54.46
2018-05-24T09:46:11.661Z,53.56
2018-05-24T09:47:11.676Z,55.89
2018-05-24T09:49:55.130Z,58.05
2018-05-24T09:50:55.138Z,57.79
2018-05-24T09:51:55.154Z,57.11
2018-05-24T09:52:55.167Z,56.16
2018-05-24T09:53:55.183Z,55.29
2018-05-24T09:54:55.199Z,53.93
2018-05-24T09:55:55.215Z,54.74
2018-05-24T09:56:55.228Z,54.54
2018-05-24T09:57:55.243Z,54.08
2018-05-24T09:58:55.259Z,53.79
2018-05-24T09:59:55.274Z,50.80
2018-05-24T10:00:55.297Z,51.29
2018-05-24T10:01:55.310Z,53.14
2018-05-24T10:02:55.325Z,51.29
2018-05-24T10:03:55.339Z,52.26
2018-05-24T10:04:55.356Z,51.26
2018-05-24T10:05:55.372Z,51.04
2018-05-24T10:06:55.590Z,54.32
2018-05-24T10:07:55.401Z,56.00
2018-05-24T10:08:55.417Z,52.09
2018-05-24T10:09:55.436Z,52.86
2018-05-24T10:10:55.449Z,54.10
2018-05-24T10:11:55.466Z,55.85
2018-05-24T10:12:55.481Z,55.98
2018-05-24T10:13:55.495Z,56.36
2018-05-24T10:14:55.512Z,55.64
2018-05-24T10:15:55.526Z,54.60
2018-05-24T10:16:55.539Z,53.62
2018-05-24T10:17:55.560Z,54.23
2018-05-24T10:18:55.573Z,51.65
2018-05-24T10:19:55.589Z,53.32
2018-05-24T10:20:55.600Z,56.52
2018-05-24T10:21:55.616Z,58.69
2018-05-24T10:22:55.632Z,55.68
2018-05-24T10:23:55.647Z,55.51
2018-05-24T10:24:55.663Z,55.44
2018-05-24T10:25:55.679Z,51.65
2018-05-24T10:26:55.694Z,50.58
2018-05-24T10:27:55.709Z,53.99
2018-05-24T10:28:55.726Z,53.01
2018-05-24T10:29:55.746Z,53.47
2018-05-24T10:30:55.758Z,56.39
2018-05-24T10:31:55.776Z,53.35
2018-05-24T10:32:55.788Z,52.57
2018-05-24T10:33:55.805Z,54.03
2018-05-24T10:34:55.817Z,54.44
2018-05-24T10:35:56.035Z,53.99
2018-05-24T10:36:55.849Z,55.25
2018-05-24T10:37:55.867Z,56.25
2018-05-24T10:38:55.879Z,52.94
2018-05-24T10:39:55.899Z,53.06
2018-05-24T10:40:55.910Z,52.67
2018-05-24T10:41:55.927Z,51.31
2018-05-24T10:42:55.943Z,52.19
2018-05-24T10:43:55.959Z,54.33
2018-05-24T10:44:55.975Z,53.06
2018-05-24T10:45:55.995Z,54.03
2018-05-24T10:46:56.009Z,50.82
2018-05-24T10:47:56.022Z,54.33
2018-05-24T10:48:56.042Z,51.70
2018-05-24T10:49:56.054Z,53.85
2018-05-24T10:50:56.105Z,49.83
2018-05-24T10:51:56.085Z,54.50
2018-05-24T10:52:56.100Z,51.97
2018-05-24T10:53:56.116Z,52.43
2018-05-24T10:54:56.132Z,52.92
2018-05-24T10:55:56.211Z,53.11
2018-05-24T10:56:56.166Z,51.26
2018-05-24T10:57:56.178Z,51.45
2018-05-24T10:58:56.193Z,53.72
2018-05-24T10:59:56.215Z,55.60
2018-05-24T11:00:56.225Z,52.67
2018-05-24T11:01:56.239Z,54.52
2018-05-24T11:02:56.293Z,53.38
2018-05-24T11:03:56.273Z,51.34
2018-05-24T11:04:56.288Z,51.36
2018-05-24T11:05:56.301Z,53.09
2018-05-24T11:06:56.320Z,50.31
2018-05-24T11:07:56.334Z,52.87
2018-05-24T11:08:56.345Z,51.99
2018-05-24T11:09:56.360Z,52.77
2018-05-24T11:10:56.377Z,50.26
2018-05-24T11:11:56.388Z,51.14
2018-05-24T11:12:56.403Z,49.10
2018-05-24T11:13:56.418Z,51.34
2018-05-24T11:14:56.437Z,51.65
2018-05-24T11:15:56.449Z,51.19
2018-05-24T11:16:56.466Z,48.17
2018-05-24T11:17:56.478Z,51.46
2018-05-24T11:18:56.493Z,50.51
2018-05-24T11:19:56.513Z,49.83
2018-05-24T11:20:56.524Z,50.31
2018-05-24T11:21:56.540Z,50.87
2018-05-24T11:22:56.560Z,48.61
2018-05-24T11:23:56.569Z,49.05
2018-05-24T11:24:56.583Z,51.48
2018-05-24T11:25:56.602Z,50.48
2018-05-24T11:26:56.612Z,53.69
2018-05-24T11:27:56.625Z,53.52
2018-05-24T11:28:56.639Z,51.39
2018-05-24T11:29:56.653Z,51.29
2018-05-24T11:30:56.667Z,52.26
2018-05-24T11:31:56.758Z,51.51
2018-05-24T11:35:56.735Z,51.29
2018-05-24T11:36:56.801Z,50.51
2018-05-24T11:37:56.763Z,51.43
2018-05-24T11:38:56.777Z,52.76
2018-05-24T11:39:56.787Z,53.30
2018-05-24T11:40:56.795Z,56.30
2018-05-24T11:41:56.809Z,54.56
2018-05-24T11:42:56.817Z,55.41
2018-05-24T11:43:56.854Z,55.79
2018-05-24T11:44:56.835Z,55.96
2018-05-24T11:45:56.848Z,58.97
2018-05-24T11:46:56.859Z,59.87
2018-05-24T11:47:56.864Z,56.25
2018-05-24T11:48:56.871Z,57.51
2018-05-24T11:49:56.879Z,57.58
2018-05-24T11:50:56.887Z,58.04
2018-05-24T11:51:56.907Z,60.33
2018-05-24T11:52:56.901Z,62.01
2018-05-24T11:53:56.907Z,59.20
2018-05-24T11:54:56.913Z,61.04
2018-05-24T11:55:56.922Z,58.72
2018-05-24T11:56:56.926Z,59.39
2018-05-24T11:57:56.931Z,60.75
2018-05-24T11:58:56.937Z,58.84
2018-05-24T11:59:56.942Z,58.36
2018-05-24T12:00:56.950Z,58.91
2018-05-24T12:01:56.953Z,58.04
2018-05-24T12:02:56.960Z,58.78
2018-05-24T12:03:56.963Z,59.84
2018-05-24T12:04:56.968Z,59.46
2018-05-24T12:05:56.974Z,59.07
2018-05-24T12:06:56.986Z,59.07
2018-05-24T12:07:56.981Z,61.88
2018-05-24T12:08:56.986Z,60.33
2018-05-24T12:09:56.999Z,59.59
2018-05-24T12:10:56.995Z,59.49
2018-05-24T12:11:57.000Z,61.46
2018-05-24T12:12:57.008Z,60.94
2018-05-24T12:13:57.011Z,59.44
2018-05-24T12:14:57.018Z,59.21
2018-05-24T12:15:57.024Z,55.44
2018-05-24T12:16:57.033Z,54.13
2018-05-24T12:17:57.043Z,53.19
2018-05-24T12:18:57.051Z,49.39
2018-05-24T12:19:57.060Z,52.38
2018-05-24T12:20:57.069Z,51.58
2018-05-24T12:21:57.077Z,52.16
2018-05-24T12:22:57.088Z,53.89
2018-05-24T12:23:57.099Z,52.59
2018-05-24T12:24:57.106Z,53.25
2018-05-24T12:25:57.118Z,55.27
2018-05-24T12:26:57.121Z,55.27
2018-05-24T12:27:57.130Z,55.19
2018-05-24T12:28:57.138Z,56.51
2018-05-24T12:31:22.974Z,54.96
2018-05-24T12:32:22.983Z,58.36
2018-05-24T12:33:22.993Z,60.47
2018-05-24T12:34:23.001Z,58.92
2018-05-24T12:35:23.159Z,60.38
2018-05-24T12:36:23.022Z,58.23
2018-05-24T12:37:23.034Z,59.31
2018-05-24T12:38:23.036Z,56.77
2018-05-24T12:39:24.250Z,57.82
2018-05-24T12:40:23.054Z,59.54
2018-05-24T12:41:23.070Z,60.51
2018-05-24T12:42:23.070Z,60.80
2018-05-24T12:43:23.083Z,61.32
2018-05-24T12:44:23.092Z,58.79
2018-05-24T12:45:23.096Z,59.08
2018-05-24T12:46:23.104Z,58.01
2018-05-24T12:47:23.113Z,59.08
2018-05-24T12:48:23.123Z,58.89
2018-05-24T12:49:23.129Z,58.01
2018-05-24T12:50:23.137Z,59.86
2018-05-24T12:51:23.145Z,58.04
2018-05-24T12:52:23.153Z,57.40
2018-05-24T12:53:23.171Z,59.70
2018-05-24T12:54:23.169Z,60.16
2018-05-24T12:55:23.178Z,62.46
2018-05-24T12:56:23.184Z,62.85
2018-05-24T12:57:23.195Z,63.56
2018-05-24T12:58:23.200Z,60.77
2018-05-24T12:59:23.208Z,60.68